Terminal Aerodrome Forecast
Issued by NWS

Home | Current Version | Previous Version | Text Only | Print | Product List | Glossary On
Versions: 1 2 3 4 5 6 7 8 9 10 11 12 13 14 15 16 17 18 19 20 21 22 23 24 25
000
FTUS45 KRIW 061100
TAFCPR
TAF
KCPR 061128Z 0612/0712 36010KT P6SM VCSH BKN030
     FM061600 35015G25KT P6SM -SHRA BKN018
     FM070100 03011KT P6SM VCSH BKN026=

USA.gov is the U.S. government's official web portal to all federal, state and local government web resources and services.